Loxahatchee, FL

5:00 PM EDT on July 20, 2017 (GMT -0400)
Orange Blvd | | Change Station

Elev 59 ft 26.68 °N, 80.26 °W | Updated 3 seconds ago

Rain
Rain
72.5 °F
Feels Like 72.5 °F
N
0.0
Wind Variable Wind from ESE

Today
High -- | Low -- °F
--% Chance of Precip.
Yesterday
High -- | Low -- °F
Precip. -- in
Pressure 30.06 in
Visibility 3.0 miles
Clouds Mostly Cloudy 2500 ft
Mostly Cloudy 3600 ft
Mostly Cloudy 9000 ft
Dew Point 69 °F
Humidity 90%
Rainfall 1.46 in
Snow Depth Not available.
6:39 AM 8:14 PM
Waning Crescent, 9% visible
METAR KPBI 202053Z 25008G17KT 3SM R10L/5500VP6000FT TSRA BR BKN025CB BKN036 BKN090 24/19 A3006 RMK AO2 WSHFT 2025 LTG DSNT N AND NW RAB43 SLP178 CONS LTGICCG OHD-E-S TS OHD-E-S MOV NE P0010 60010 T02440189 55007 $
Pressure 30.06 in
Visibility 3.0 miles
Clouds Mostly Cloudy 2500 ft
Mostly Cloudy 3600 ft
Mostly Cloudy 9000 ft
Dew Point 69 °F
Humidity 90%
Rainfall 1.46 in
Snow Depth Not available.
6:39 AM 8:14 PM
Waning Crescent, 9% visible
METAR KPBI 202053Z 25008G17KT 3SM R10L/5500VP6000FT TSRA BR BKN025CB BKN036 BKN090 24/19 A3006 RMK AO2 WSHFT 2025 LTG DSNT N AND NW RAB43 SLP178 CONS LTGICCG OHD-E-S TS OHD-E-S MOV NE P0010 60010 T02440189 55007 $

Get Severe Weather Alerts

Thanks for signing up!

Be on the lookout for a verification email in your inbox.

You'll start receiving the daily forecast at 6 AM.

×

10-Day Weather Forecast

Almanac

Astronomy

Jul. 20, 2017 Rise Set
Actual Time
Civil Twilight
Nautical Twilight
Astronomical Twilight
Moon
Length of Visible Light
Length of Day
Tomorrow will be .
, % of the Moon is Illuminated

Today's Extremes

State Highs State Lows

Community

WunderPhotos

Category 6

Welcome to Category 6. This is the collective home for Weather Underground's featured writeups by Dr. Jeff Masters (right), Bob Henson (left), Chris Burt, and other regular contributors.

Nearby

Air Quality

  Air Quality AQ Index Pollutant
Not available.

Snow Depth

Station Depth Elevation

Earthquake Activity

City Distance Mag. Time & Date
Minimum magnitude displayed is 2.5.

Coastal Water Temperatures

Place Temperature

Stations

Nearby Weather Stations

Station Location Temp. Windchill Dew Point Humidity Wind Precip. Elev Updated Type
                   

Watches & Warnings

There are currently no watches in effect.